ADDS METAR Data INFO
IDs: Format: Raw Decoded Include TAF

Data at: 1442 UTC 22 Nov 2017

METAR for:KDAY (Dayton/Cox Intl, OH, US)
Text:KDAY 221356Z 36013KT 10SM OVC035 01/M05 A3027 RMK AO2 SLP256 T00061050
Temperature: 0.6°C ( 33°F)
Dewpoint: -5.0°C ( 23°F) [RH = 66%]
Pressure (altimeter):30.27 inches Hg (1025.1 mb) [Sea level pressure: 1025.6 mb]
Winds:from the N (360 degrees) at 15 MPH (13 knots; 6.7 m/s)
Visibility:10 or more sm (16+ km)
Ceiling:3500 feet AGL
Clouds: overcast cloud deck at 3500 feet AGL